createdAt,value
2019-03-31T00:01:26.125Z,186.82
2019-03-31T00:03:56.087Z,179.53
2019-03-31T00:06:26.042Z,192.05
2019-03-31T00:08:56.015Z,190.10
2019-03-31T00:11:25.967Z,186.82
2019-03-31T00:13:55.910Z,186.18
2019-03-31T00:16:25.846Z,189.50
2019-03-31T00:18:55.897Z,182.45
2019-03-31T00:21:25.940Z,178.15
2019-03-31T00:23:55.895Z,171.15
2019-03-31T00:26:25.879Z,171.15
2019-03-31T00:28:55.829Z,171.72
2019-03-31T00:31:25.815Z,175.20
2019-03-31T00:33:55.862Z,176.65
2019-03-31T00:36:25.783Z,177.50
2019-03-31T00:38:55.791Z,182.75
2019-03-31T00:41:25.769Z,175.97
2019-03-31T00:43:55.798Z,181.52
2019-03-31T00:46:25.774Z,167.65
2019-03-31T00:48:55.790Z,171.75
2019-03-31T00:51:25.773Z,177.65
2019-03-31T00:53:57.578Z,181.43
2019-03-31T00:56:27.531Z,176.27
2019-03-31T00:58:57.554Z,173.35
2019-03-31T01:01:36.815Z,169.82
2019-03-31T01:04:06.434Z,173.20
2019-03-31T01:06:37.590Z,177.57
2019-03-31T01:09:12.388Z,166.70
2019-03-31T01:11:42.953Z,164.62
2019-03-31T01:14:13.642Z,168.05
2019-03-31T01:16:43.850Z,164.72
2019-03-31T01:19:14.470Z,171.60
2019-03-31T01:21:44.565Z,168.85
2019-03-31T01:24:14.826Z,163.45
2019-03-31T01:26:44.812Z,164.62
2019-03-31T01:29:15.420Z,164.37
2019-03-31T01:31:50.474Z,167.47
2019-03-31T01:34:17.247Z,168.87
2019-03-31T01:36:47.434Z,165.18
2019-03-31T01:39:17.560Z,162.92
2019-03-31T01:41:47.757Z,163.28
2019-03-31T01:44:17.832Z,157.30
2019-03-31T01:46:47.872Z,163.52
2019-03-31T01:49:17.862Z,157.50
2019-03-31T01:51:47.872Z,163.00
2019-03-31T01:54:17.858Z,165.32
2019-03-31T01:56:47.834Z,172.02
2019-03-31T01:59:17.776Z,173.62
2019-03-31T02:01:47.965Z,172.72
2019-03-31T02:04:18.172Z,169.30
2019-03-31T02:06:48.219Z,169.57
2019-03-31T02:09:18.169Z,177.22
2019-03-31T02:11:48.166Z,187.75
2019-03-31T02:14:18.273Z,169.87
2019-03-31T02:16:48.248Z,185.73
2019-03-31T02:19:18.232Z,172.13
2019-03-31T02:21:48.264Z,170.00
2019-03-31T02:24:18.324Z,167.82
2019-03-31T02:26:48.259Z,175.38
2019-03-31T02:29:18.226Z,173.62
2019-03-31T02:31:48.197Z,172.00
2019-03-31T02:34:18.350Z,174.57
2019-03-31T02:36:48.355Z,188.18
2019-03-31T02:39:18.377Z,187.03
2019-03-31T02:41:48.558Z,178.10
2019-03-31T02:44:18.574Z,181.97
2019-03-31T02:46:48.649Z,188.47
2019-03-31T02:49:19.035Z,186.55
2019-03-31T02:51:49.284Z,180.12
2019-03-31T02:54:19.303Z,176.37
2019-03-31T02:56:49.623Z,173.90
2019-03-31T02:59:20.482Z,181.95
2019-03-31T03:01:52.498Z,172.47
2019-03-31T03:04:23.917Z,173.70
2019-03-31T03:06:54.928Z,166.77
2019-03-31T03:09:28.967Z,167.65
2019-03-31T03:12:00.888Z,167.13
2019-03-31T03:14:34.020Z,168.45
2019-03-31T03:17:03.953Z,153.85
2019-03-31T03:19:35.089Z,152.87
2019-03-31T03:22:05.102Z,150.78
2019-03-31T03:24:35.132Z,150.45
2019-03-31T03:27:05.088Z,155.87
2019-03-31T03:29:36.083Z,153.23
2019-03-31T03:32:06.206Z,153.75
2019-03-31T03:34:36.364Z,145.12
2019-03-31T03:37:06.412Z,152.57
2019-03-31T03:39:38.145Z,148.95
2019-03-31T03:42:08.238Z,153.18
2019-03-31T03:44:38.311Z,148.68
2019-03-31T03:47:08.352Z,143.95
2019-03-31T03:49:38.368Z,149.57
2019-03-31T03:52:08.395Z,145.10
2019-03-31T03:54:38.704Z,142.05
2019-03-31T03:57:08.726Z,146.53
2019-03-31T03:59:38.774Z,144.97
2019-03-31T04:02:08.757Z,152.53
2019-03-31T04:04:38.961Z,142.70
2019-03-31T04:07:08.955Z,134.50
2019-03-31T04:09:39.019Z,145.95
2019-03-31T04:12:09.225Z,136.45
2019-03-31T04:14:39.212Z,127.02
2019-03-31T04:17:09.461Z,128.62
2019-03-31T04:19:39.647Z,123.55
2019-03-31T04:22:09.590Z,127.62
2019-03-31T04:24:39.717Z,127.32
2019-03-31T04:27:09.673Z,124.55
2019-03-31T04:29:39.717Z,123.90
2019-03-31T04:32:09.780Z,123.92
2019-03-31T04:34:39.837Z,126.40
2019-03-31T04:37:09.812Z,135.07
2019-03-31T04:39:39.764Z,129.95
2019-03-31T04:42:09.778Z,130.35
2019-03-31T04:44:39.813Z,133.75
2019-03-31T04:47:09.785Z,134.65
2019-03-31T04:49:39.831Z,134.75
2019-03-31T04:52:09.835Z,140.85
2019-03-31T04:54:40.577Z,130.40
2019-03-31T04:57:10.520Z,139.50
2019-03-31T04:59:40.467Z,137.60
2019-03-31T05:02:10.434Z,137.30
2019-03-31T05:04:40.451Z,140.92
2019-03-31T05:07:10.414Z,141.97
2019-03-31T05:09:40.411Z,137.03
2019-03-31T05:12:11.352Z,134.50
2019-03-31T05:14:41.326Z,130.93
2019-03-31T05:17:11.350Z,133.82
2019-03-31T05:19:45.235Z,136.00
2019-03-31T05:22:15.223Z,138.00
2019-03-31T05:24:45.264Z,139.82
2019-03-31T05:27:15.295Z,146.87
2019-03-31T05:29:45.525Z,140.92
2019-03-31T05:32:15.482Z,140.68
2019-03-31T05:34:45.457Z,132.93
2019-03-31T05:37:15.454Z,130.45
2019-03-31T05:39:45.487Z,131.60
2019-03-31T05:42:15.595Z,134.32
2019-03-31T05:44:45.542Z,130.00
2019-03-31T05:47:15.523Z,131.50
2019-03-31T05:49:45.482Z,134.18
2019-03-31T05:52:15.446Z,137.00
2019-03-31T05:54:46.295Z,140.47
2019-03-31T05:57:16.228Z,133.52
2019-03-31T05:59:46.191Z,132.93
2019-03-31T06:02:16.172Z,134.80
2019-03-31T06:04:46.205Z,139.43
2019-03-31T06:07:16.196Z,132.72
2019-03-31T06:09:46.241Z,131.20
2019-03-31T06:12:17.868Z,128.40
2019-03-31T06:14:47.806Z,120.08
2019-03-31T06:17:17.866Z,119.25
2019-03-31T06:19:47.817Z,115.05
2019-03-31T06:22:17.773Z,124.95
2019-03-31T06:24:47.798Z,113.72
2019-03-31T06:27:17.761Z,116.20
2019-03-31T06:29:47.812Z,121.55
2019-03-31T06:32:17.830Z,115.52
2019-03-31T06:34:48.109Z,117.97
2019-03-31T06:37:19.265Z,118.30
2019-03-31T06:39:49.231Z,109.48
2019-03-31T06:42:19.321Z,116.45
2019-03-31T06:44:49.261Z,118.30
2019-03-31T06:47:19.246Z,115.45
2019-03-31T06:49:48.863Z,122.80
2019-03-31T06:52:18.787Z,117.82
2019-03-31T06:54:48.743Z,132.67
2019-03-31T06:57:18.722Z,129.78
2019-03-31T06:59:48.697Z,125.60
2019-03-31T07:02:18.645Z,122.85
2019-03-31T07:05:00.396Z,115.20
2019-03-31T07:07:23.595Z,107.85
2019-03-31T07:09:52.036Z,100.92
2019-03-31T07:12:22.187Z,110.15
2019-03-31T07:14:52.195Z,96.75
2019-03-31T07:17:22.230Z,98.33
2019-03-31T07:19:52.306Z,93.05
2019-03-31T07:22:24.392Z,89.32
2019-03-31T07:24:54.149Z,86.15
2019-03-31T07:27:24.175Z,86.87
2019-03-31T07:29:53.888Z,79.62
2019-03-31T07:32:23.734Z,86.30
2019-03-31T07:34:53.676Z,74.17
2019-03-31T07:37:23.698Z,75.52
2019-03-31T07:39:55.702Z,81.30
2019-03-31T07:42:26.492Z,75.12
2019-03-31T07:44:56.647Z,70.30
2019-03-31T07:47:26.692Z,79.45
2019-03-31T07:49:56.654Z,76.22
2019-03-31T07:52:26.699Z,74.35
2019-03-31T07:54:56.669Z,68.67
2019-03-31T07:57:26.665Z,71.40
2019-03-31T07:59:56.786Z,69.55
2019-03-31T08:02:27.780Z,64.87
2019-03-31T08:04:57.753Z,66.40
2019-03-31T08:07:27.713Z,65.15
2019-03-31T08:09:57.832Z,62.13
2019-03-31T08:12:27.968Z,61.85
2019-03-31T08:14:58.527Z,64.20
2019-03-31T08:17:28.918Z,63.10
2019-03-31T08:19:58.926Z,65.17
2019-03-31T08:22:28.923Z,61.63
2019-03-31T08:25:00.480Z,65.78
2019-03-31T08:27:30.543Z,59.93
2019-03-31T08:30:01.391Z,59.13
2019-03-31T08:32:31.649Z,60.67
2019-03-31T08:35:01.644Z,61.10
2019-03-31T08:37:31.589Z,59.67
2019-03-31T08:40:01.531Z,64.05
2019-03-31T08:42:31.480Z,60.88
2019-03-31T08:45:01.451Z,61.45
2019-03-31T08:47:31.362Z,57.00
2019-03-31T08:50:02.344Z,58.20
2019-03-31T08:52:32.850Z,60.35
2019-03-31T08:55:02.773Z,51.23
2019-03-31T08:57:32.727Z,56.20
2019-03-31T09:00:03.458Z,56.02
2019-03-31T09:02:35.516Z,48.52
2019-03-31T09:05:08.322Z,50.83
2019-03-31T09:07:41.664Z,53.23
2019-03-31T09:10:10.629Z,52.90
2019-03-31T09:12:40.759Z,50.60
2019-03-31T09:15:12.363Z,45.28
2019-03-31T09:17:42.599Z,46.48
2019-03-31T09:20:13.973Z,46.83
2019-03-31T09:22:44.043Z,44.55
2019-03-31T09:25:15.386Z,46.60
2019-03-31T09:27:45.374Z,43.33
2019-03-31T09:30:15.778Z,45.30
2019-03-31T09:32:45.826Z,42.33
2019-03-31T09:35:15.990Z,45.03
2019-03-31T09:37:45.949Z,41.08
2019-03-31T09:40:16.282Z,46.35
2019-03-31T09:42:46.439Z,46.77
2019-03-31T09:45:16.384Z,46.05
2019-03-31T09:47:46.458Z,46.00
2019-03-31T09:50:17.707Z,42.43
2019-03-31T09:52:47.929Z,41.55
2019-03-31T09:55:17.617Z,45.45
2019-03-31T09:57:47.740Z,42.38
2019-03-31T10:00:21.792Z,44.08
2019-03-31T10:02:51.859Z,40.12
2019-03-31T10:05:21.867Z,43.05
2019-03-31T10:07:51.974Z,44.30
2019-03-31T10:10:32.697Z,42.78
2019-03-31T10:13:02.769Z,40.63
2019-03-31T10:15:33.078Z,40.73
2019-03-31T10:18:03.153Z,41.85
2019-03-31T10:20:33.238Z,36.95
2019-03-31T10:23:03.657Z,32.35
2019-03-31T10:25:33.858Z,30.97
2019-03-31T10:28:04.852Z,32.43
2019-03-31T10:30:41.320Z,35.43
2019-03-31T10:33:11.232Z,34.43
2019-03-31T10:35:41.166Z,34.00
2019-03-31T10:38:10.813Z,34.93
2019-03-31T10:40:40.405Z,31.80
2019-03-31T10:43:09.990Z,30.13
2019-03-31T10:45:40.106Z,29.43
2019-03-31T10:48:20.217Z,30.90
2019-03-31T10:50:41.124Z,31.60
2019-03-31T10:53:10.832Z,25.93
2019-03-31T10:55:40.572Z,24.80
2019-03-31T10:58:10.216Z,18.93
2019-03-31T11:00:44.323Z,18.53
2019-03-31T11:03:12.811Z,22.03
2019-03-31T11:05:42.594Z,15.60
2019-03-31T11:08:12.502Z,15.77
2019-03-31T11:10:42.199Z,16.23
2019-03-31T11:13:11.943Z,14.70
2019-03-31T11:15:41.948Z,16.90
2019-03-31T11:18:11.885Z,12.17
2019-03-31T11:20:41.616Z,11.77
2019-03-31T11:23:18.404Z,16.10
2019-03-31T11:25:47.720Z,15.20
2019-03-31T11:28:17.382Z,15.47
2019-03-31T11:30:47.150Z,16.93
2019-03-31T11:33:16.542Z,18.17
2019-03-31T11:35:46.093Z,16.73
2019-03-31T11:38:16.071Z,17.80
2019-03-31T11:40:45.743Z,17.13
2019-03-31T11:43:15.463Z,14.30
2019-03-31T11:45:45.270Z,14.73
2019-03-31T11:48:14.953Z,16.70
2019-03-31T11:50:44.690Z,19.03
2019-03-31T11:53:14.471Z,14.23
2019-03-31T11:55:44.200Z,13.73
2019-03-31T11:58:13.546Z,14.73
2019-03-31T12:00:48.092Z,15.67
2019-03-31T12:03:18.696Z,16.03
2019-03-31T12:05:48.418Z,19.87
2019-03-31T12:08:17.731Z,18.23
2019-03-31T12:10:47.363Z,15.17
2019-03-31T12:13:18.164Z,18.83
2019-03-31T12:15:48.210Z,14.77
2019-03-31T12:18:17.943Z,16.80
2019-03-31T12:20:47.702Z,21.00
2019-03-31T12:23:17.422Z,20.17
2019-03-31T12:25:47.115Z,18.60
2019-03-31T12:28:16.924Z,17.60
2019-03-31T12:30:46.682Z,17.07
2019-03-31T12:33:16.491Z,19.37
2019-03-31T12:35:46.272Z,23.27
2019-03-31T12:38:16.021Z,17.83
2019-03-31T12:40:45.691Z,20.33
2019-03-31T12:43:15.418Z,19.33
2019-03-31T12:45:45.084Z,17.97
2019-03-31T12:48:15.793Z,18.00
2019-03-31T12:50:45.190Z,19.33
2019-03-31T12:53:14.753Z,18.10
2019-03-31T12:55:44.435Z,17.17
2019-03-31T12:58:14.199Z,17.53
2019-03-31T13:00:45.103Z,15.10
2019-03-31T13:03:16.248Z,13.93
2019-03-31T13:05:46.371Z,16.63
2019-03-31T13:08:16.186Z,16.03
2019-03-31T13:10:45.809Z,15.57
2019-03-31T13:13:15.572Z,16.63
2019-03-31T13:15:45.476Z,14.20
2019-03-31T13:18:15.133Z,14.30
2019-03-31T13:20:44.831Z,12.47
2019-03-31T13:23:14.545Z,12.37
2019-03-31T13:25:44.246Z,12.73
2019-03-31T13:28:13.907Z,14.93
2019-03-31T13:30:43.369Z,13.03
2019-03-31T13:33:13.184Z,13.60
2019-03-31T13:35:42.887Z,13.90
2019-03-31T13:38:12.207Z,14.37
2019-03-31T13:40:41.767Z,13.73
2019-03-31T13:43:11.126Z,13.13
2019-03-31T13:45:40.812Z,17.80
2019-03-31T13:48:10.570Z,17.63
2019-03-31T13:50:40.216Z,16.73
2019-03-31T13:53:11.024Z,17.07
2019-03-31T13:55:40.749Z,15.07
2019-03-31T13:58:11.459Z,17.10
2019-03-31T14:00:42.138Z,16.47
2019-03-31T14:03:11.850Z,14.77
2019-03-31T14:05:42.385Z,17.47
2019-03-31T14:08:25.108Z,17.73
2019-03-31T14:10:43.885Z,20.80
2019-03-31T14:13:13.626Z,15.37
2019-03-31T14:15:43.450Z,15.60
2019-03-31T14:18:13.099Z,13.63
2019-03-31T14:20:42.832Z,16.77
2019-03-31T14:23:12.743Z,15.80
2019-03-31T14:25:42.623Z,14.73
2019-03-31T14:28:12.079Z,16.97
2019-03-31T14:30:41.364Z,16.60
2019-03-31T14:33:11.228Z,15.40
2019-03-31T14:35:40.881Z,17.77
2019-03-31T14:38:10.262Z,15.30
2019-03-31T14:40:40.947Z,17.00
2019-03-31T14:43:10.823Z,13.50
2019-03-31T14:45:40.608Z,16.43
2019-03-31T14:48:10.643Z,14.05
2019-03-31T14:50:40.746Z,14.03
2019-03-31T14:53:10.462Z,15.87
2019-03-31T14:55:40.120Z,14.00
2019-03-31T14:58:09.851Z,15.10
2019-03-31T15:00:39.589Z,14.40
2019-03-31T15:03:09.799Z,14.20
2019-03-31T15:05:39.755Z,11.73
2019-03-31T15:08:11.326Z,11.03
2019-03-31T15:10:40.960Z,12.23
2019-03-31T15:13:10.614Z,14.70
2019-03-31T15:15:40.336Z,11.73
2019-03-31T15:18:11.188Z,11.83
2019-03-31T15:20:40.943Z,11.37
2019-03-31T15:23:10.583Z,12.97
2019-03-31T15:25:43.032Z,13.30
2019-03-31T15:28:11.601Z,13.67
2019-03-31T15:30:41.379Z,13.33
2019-03-31T15:33:11.072Z,13.60
2019-03-31T15:35:42.492Z,11.30
2019-03-31T15:38:12.220Z,14.40
2019-03-31T15:40:42.473Z,11.83
2019-03-31T15:43:12.165Z,12.77
2019-03-31T15:45:42.634Z,10.72
2019-03-31T15:48:12.304Z,11.60
2019-03-31T15:50:42.271Z,14.15
2019-03-31T15:53:12.216Z,13.13
2019-03-31T15:55:42.147Z,11.40
2019-03-31T15:58:12.084Z,13.22
2019-03-31T16:00:42.016Z,11.63
2019-03-31T16:03:12.163Z,15.03
2019-03-31T16:05:42.113Z,10.68
2019-03-31T16:08:12.976Z,13.60
2019-03-31T16:10:43.027Z,13.08
2019-03-31T16:13:13.039Z,14.87
2019-03-31T16:15:42.755Z,16.15
2019-03-31T16:18:12.935Z,14.15
2019-03-31T16:20:42.967Z,12.73
2019-03-31T16:23:13.211Z,13.22
2019-03-31T16:25:45.363Z,13.45
2019-03-31T16:28:15.340Z,15.30
2019-03-31T16:30:45.391Z,14.85
2019-03-31T16:33:15.525Z,18.95
2019-03-31T16:35:45.591Z,19.92
2019-03-31T16:38:15.712Z,19.20
2019-03-31T16:40:46.701Z,17.37
2019-03-31T16:43:16.747Z,15.68
2019-03-31T16:45:46.707Z,18.10
2019-03-31T16:48:17.170Z,18.95
2019-03-31T16:50:47.567Z,19.17
2019-03-31T16:53:18.718Z,23.67
2019-03-31T16:55:48.954Z,18.27
2019-03-31T16:58:18.904Z,17.90
2019-03-31T17:00:49.001Z,22.52
2019-03-31T17:03:18.989Z,21.07
2019-03-31T17:05:49.024Z,23.55
2019-03-31T17:08:19.950Z,23.50
2019-03-31T17:10:50.033Z,20.00
2019-03-31T17:13:20.100Z,25.62
2019-03-31T17:15:50.205Z,25.95
2019-03-31T17:18:20.218Z,27.82
2019-03-31T17:20:50.160Z,26.82
2019-03-31T17:23:20.158Z,31.30
2019-03-31T17:25:50.083Z,28.90
2019-03-31T17:28:20.114Z,28.27
2019-03-31T17:30:50.207Z,29.42
2019-03-31T17:33:20.162Z,33.10
2019-03-31T17:35:50.101Z,33.30
2019-03-31T17:38:20.048Z,31.75
2019-03-31T17:40:50.129Z,31.97
2019-03-31T17:43:20.174Z,36.83
2019-03-31T17:45:50.246Z,28.65
2019-03-31T17:48:20.203Z,29.50
2019-03-31T17:50:50.143Z,34.43
2019-03-31T17:53:20.081Z,32.53
2019-03-31T17:55:52.846Z,33.73
2019-03-31T17:58:22.769Z,35.52
2019-03-31T18:00:53.686Z,44.40
2019-03-31T18:03:23.635Z,37.50
2019-03-31T18:05:53.637Z,40.55
2019-03-31T18:08:25.372Z,39.03
2019-03-31T18:10:55.323Z,38.05
2019-03-31T18:13:25.327Z,38.13
2019-03-31T18:15:55.263Z,37.88
2019-03-31T18:18:25.202Z,37.10
2019-03-31T18:20:56.726Z,41.98
2019-03-31T18:23:26.657Z,40.30
2019-03-31T18:25:56.615Z,43.35
2019-03-31T18:28:26.550Z,41.75
2019-03-31T18:30:56.495Z,41.00
2019-03-31T18:33:26.531Z,43.02
2019-03-31T18:35:56.324Z,43.92
2019-03-31T18:38:26.292Z,43.20
2019-03-31T18:40:56.234Z,44.70
2019-03-31T18:43:26.164Z,43.13
2019-03-31T18:45:56.128Z,47.60
2019-03-31T18:48:26.054Z,41.33
2019-03-31T18:50:56.006Z,44.10
2019-03-31T18:53:30.536Z,47.83
2019-03-31T18:56:02.053Z,41.63
2019-03-31T18:58:48.862Z,47.20
2019-03-31T19:01:23.757Z,41.35
2019-03-31T19:03:55.166Z,42.20
2019-03-31T19:06:42.959Z,44.95
2019-03-31T19:09:15.500Z,42.90
2019-03-31T19:11:47.113Z,53.87
2019-03-31T19:14:35.176Z,39.73
2019-03-31T19:17:09.120Z,38.30
2019-03-31T19:19:40.346Z,38.35
2019-03-31T19:22:21.472Z,36.40
2019-03-31T19:24:53.058Z,37.53
2019-03-31T19:27:30.979Z,36.15
2019-03-31T19:30:05.291Z,33.63
2019-03-31T19:32:53.755Z,37.35
2019-03-31T19:35:40.304Z,32.73
2019-03-31T19:38:13.999Z,32.80
2019-03-31T19:41:04.386Z,32.88
2019-03-31T19:43:36.230Z,30.68
2019-03-31T19:46:19.848Z,31.68
2019-03-31T19:48:54.141Z,30.02
2019-03-31T19:51:41.969Z,36.35
2019-03-31T19:54:16.463Z,34.85
2019-03-31T19:56:50.760Z,31.15
2019-03-31T19:59:22.375Z,30.30
2019-03-31T20:01:56.314Z,37.00
2019-03-31T20:04:45.104Z,33.67
2019-03-31T20:07:22.588Z,33.80
2019-03-31T20:10:06.562Z,33.28
2019-03-31T20:12:43.867Z,33.85
2019-03-31T20:15:18.105Z,52.05
2019-03-31T20:18:13.566Z,39.97
2019-03-31T20:20:54.016Z,32.45
2019-03-31T20:23:28.332Z,33.18
2019-03-31T20:26:05.775Z,37.67
2019-03-31T20:28:39.751Z,38.42
2019-03-31T20:31:27.352Z,35.80
2019-03-31T20:33:58.843Z,37.05
2019-03-31T20:36:30.435Z,36.30
2019-03-31T20:39:04.780Z,41.77
2019-03-31T20:41:35.942Z,38.25
2019-03-31T20:44:05.827Z,35.05
2019-03-31T20:46:35.463Z,32.13
2019-03-31T20:49:05.311Z,35.63
2019-03-31T20:51:34.931Z,34.45
2019-03-31T20:54:04.721Z,36.20
2019-03-31T20:56:34.603Z,36.48
2019-03-31T20:59:04.676Z,35.48
2019-03-31T21:01:34.302Z,35.00
2019-03-31T21:04:03.855Z,30.80
2019-03-31T21:06:33.960Z,30.05
2019-03-31T21:09:06.557Z,33.05
2019-03-31T21:11:37.026Z,33.67
2019-03-31T21:14:06.928Z,36.90
2019-03-31T21:16:36.612Z,33.50
2019-03-31T21:19:06.163Z,31.93
2019-03-31T21:21:36.011Z,36.75
2019-03-31T21:24:05.962Z,38.33
2019-03-31T21:26:36.062Z,34.95
2019-03-31T21:29:06.067Z,37.58
2019-03-31T21:31:36.043Z,36.93
2019-03-31T21:34:06.027Z,35.85
2019-03-31T21:36:35.984Z,37.70
2019-03-31T21:39:07.584Z,33.38
2019-03-31T21:41:37.611Z,36.08
2019-03-31T21:44:08.303Z,34.67
2019-03-31T21:46:38.145Z,32.13
2019-03-31T21:49:08.098Z,33.02
2019-03-31T21:51:38.058Z,31.87
2019-03-31T21:54:08.010Z,33.23
2019-03-31T21:56:37.957Z,34.90
2019-03-31T21:59:07.559Z,32.50
2019-03-31T22:01:37.702Z,31.77
2019-03-31T22:04:07.818Z,29.63
2019-03-31T22:06:37.511Z,31.37
2019-03-31T22:09:09.202Z,29.60
2019-03-31T22:11:39.904Z,30.50
2019-03-31T22:14:10.629Z,31.40
2019-03-31T22:16:40.566Z,28.75
2019-03-31T22:19:10.446Z,25.90
2019-03-31T22:21:40.426Z,29.48
2019-03-31T22:24:10.367Z,30.68
2019-03-31T22:26:40.972Z,29.63
2019-03-31T22:29:10.807Z,29.92
2019-03-31T22:31:40.735Z,28.20
2019-03-31T22:34:11.761Z,29.65
2019-03-31T22:36:41.686Z,26.00
2019-03-31T22:39:11.850Z,28.52
2019-03-31T22:41:41.791Z,24.32
2019-03-31T22:44:11.889Z,25.88
2019-03-31T22:46:53.737Z,25.70
2019-03-31T22:49:13.511Z,29.15
2019-03-31T22:51:43.453Z,24.87
2019-03-31T22:54:15.171Z,25.72
2019-03-31T22:56:45.165Z,25.52
2019-03-31T22:59:15.147Z,26.15
2019-03-31T23:01:45.135Z,28.02
2019-03-31T23:04:15.083Z,25.50
2019-03-31T23:06:45.091Z,26.10
2019-03-31T23:09:15.030Z,28.40
2019-03-31T23:11:45.895Z,25.43
2019-03-31T23:14:15.939Z,29.27
2019-03-31T23:16:45.861Z,25.85
2019-03-31T23:19:15.787Z,26.60
2019-03-31T23:21:45.735Z,22.42
2019-03-31T23:24:15.701Z,20.15
2019-03-31T23:26:45.652Z,26.02
2019-03-31T23:29:15.583Z,20.65
2019-03-31T23:31:45.552Z,22.20
2019-03-31T23:34:15.479Z,20.30
2019-03-31T23:36:45.494Z,21.62
2019-03-31T23:39:15.460Z,20.40
2019-03-31T23:41:45.515Z,22.75
2019-03-31T23:44:15.509Z,21.73
2019-03-31T23:46:45.449Z,20.88
2019-03-31T23:49:15.460Z,22.13
2019-03-31T23:51:45.484Z,20.97
2019-03-31T23:54:15.403Z,22.30
2019-03-31T23:56:45.547Z,21.95
2019-03-31T23:59:15.493Z,19.82
